TimeMST,TemperatureF,Dew PointF,Humidity,Sea Level PressureIn,VisibilityMPH,Wind Direction,Wind SpeedMPH,Gust SpeedMPH,PrecipitationIn,Events,Conditions,WindDirDegrees,DateUTC
12:53 AM,1.9,-2.9,80,30.46,10.0,North,3.5,-,N/A,,Clear,360,2012-12-29 07:53:00
1:53 AM,1.0,-4.0,79,30.49,10.0,NNE,5.8,-,N/A,,Clear,20,2012-12-29 08:53:00
2:53 AM,-6.0,-9.0,87,30.53,10.0,Calm,Calm,-,N/A,,Clear,0,2012-12-29 09:53:00
3:53 AM,-2.0,-6.0,83,30.50,10.0,NNE,6.9,-,N/A,,Clear,20,2012-12-29 10:53:00
4:53 AM,-6.0,-8.0,91,30.51,10.0,Calm,Calm,-,N/A,,Clear,0,2012-12-29 11:53:00
5:53 AM,-4.0,-9.0,79,30.53,10.0,Calm,Calm,-,N/A,,Clear,0,2012-12-29 12:53:00
6:53 AM,-7.1,-11.0,83,30.60,10.0,NE,5.8,-,N/A,,Clear,50,2012-12-29 13:53:00
7:53 AM,-0.9,-5.1,83,30.54,10.0,North,3.5,-,N/A,,Clear,10,2012-12-29 14:53:00
8:53 AM,1.9,-0.9,88,30.54,10.0,ENE,3.5,-,N/A,,Clear,60,2012-12-29 15:53:00
9:53 AM,6.1,1.9,83,30.58,10.0,Calm,Calm,-,N/A,,Clear,0,2012-12-29 16:53:00
10:53 AM,12.0,5.0,73,30.51,10.0,ENE,5.8,-,N/A,,Clear,60,2012-12-29 17:53:00
11:53 AM,16.0,7.0,68,30.48,10.0,NE,5.8,-,N/A,,Clear,50,2012-12-29 18:53:00
12:53 PM,19.9,7.0,57,30.43,10.0,NE,5.8,-,N/A,,Clear,40,2012-12-29 19:53:00
1:53 PM,21.9,8.1,55,30.38,10.0,ENE,6.9,-,N/A,,Clear,60,2012-12-29 20:53:00
2:53 PM,25.0,8.1,49,30.38,10.0,East,3.5,-,N/A,,Clear,90,2012-12-29 21:53:00
4:53 PM,18.0,6.1,60,30.38,10.0,NE,4.6,-,N/A,,Clear,40,2012-12-29 23:53:00
5:53 PM,19.0,7.0,59,30.38,10.0,Calm,Calm,-,N/A,,Clear,0,2012-12-30 00:53:00
6:53 PM,14.0,6.1,71,30.43,10.0,North,3.5,-,N/A,,Clear,10,2012-12-30 01:53:00
7:53 PM,15.1,7.0,70,30.40,10.0,ESE,3.5,-,N/A,,Mostly Cloudy,110,2012-12-30 02:53:00
8:53 PM,12.9,5.0,71,30.39,10.0,ENE,9.2,-,N/A,,Clear,60,2012-12-30 03:53:00
9:53 PM,12.9,3.0,65,30.36,10.0,NNE,3.5,-,N/A,,Clear,30,2012-12-30 04:53:00
10:53 PM,12.9,3.9,67,30.32,10.0,NNE,4.6,-,N/A,,Clear,20,2012-12-30 05:53:00
11:53 PM,12.9,3.0,65,30.28,10.0,Calm,Calm,-,N/A,,Clear,0,2012-12-30 06:53:00